sensor_id;sensor_type;location;lat;lon;timestamp;P1;durP1;ratioP1;P2;durP2;ratioP2
55589;SDS011;41452;42.780;23.116;2023-02-18T00:00:08;9.50;;;5.05;;
55589;SDS011;41452;42.780;23.116;2023-02-18T00:02:37;10.95;;;4.40;;
55589;SDS011;41452;42.780;23.116;2023-02-18T00:05:03;13.50;;;5.35;;
55589;SDS011;41452;42.780;23.116;2023-02-18T00:07:32;11.35;;;4.38;;
55589;SDS011;41452;42.780;23.116;2023-02-18T00:09:58;11.43;;;5.60;;
55589;SDS011;41452;42.780;23.116;2023-02-18T00:12:24;13.60;;;5.28;;
55589;SDS011;41452;42.780;23.116;2023-02-18T00:14:49;8.57;;;4.32;;
55589;SDS011;41452;42.780;23.116;2023-02-18T00:17:14;8.95;;;4.32;;
55589;SDS011;41452;42.780;23.116;2023-02-18T00:19:40;11.77;;;5.13;;
55589;SDS011;41452;42.780;23.116;2023-02-18T00:22:05;11.07;;;4.65;;
55589;SDS011;41452;42.780;23.116;2023-02-18T00:24:31;13.50;;;5.03;;
55589;SDS011;41452;42.780;23.116;2023-02-18T00:26:56;14.85;;;5.20;;
55589;SDS011;41452;42.780;23.116;2023-02-18T00:29:21;12.85;;;4.70;;
55589;SDS011;41452;42.780;23.116;2023-02-18T00:31:47;10.63;;;4.80;;
55589;SDS011;41452;42.780;23.116;2023-02-18T00:34:12;12.15;;;4.65;;
55589;SDS011;41452;42.780;23.116;2023-02-18T00:36:38;10.95;;;4.97;;
55589;SDS011;41452;42.780;23.116;2023-02-18T00:39:05;13.13;;;4.55;;
55589;SDS011;41452;42.780;23.116;2023-02-18T00:41:33;11.15;;;4.70;;
55589;SDS011;41452;42.780;23.116;2023-02-18T00:43:59;12.70;;;4.82;;
55589;SDS011;41452;42.780;23.116;2023-02-18T00:46:25;11.48;;;5.00;;
55589;SDS011;41452;42.780;23.116;2023-02-18T00:48:51;10.75;;;3.92;;
55589;SDS011;41452;42.780;23.116;2023-02-18T00:51:17;9.55;;;4.45;;
55589;SDS011;41452;42.780;23.116;2023-02-18T00:53:42;11.15;;;4.85;;
55589;SDS011;41452;42.780;23.116;2023-02-18T00:56:08;16.60;;;5.68;;
55589;SDS011;41452;42.780;23.116;2023-02-18T00:58:34;9.82;;;4.20;;
55589;SDS011;41452;42.780;23.116;2023-02-18T01:01:00;13.75;;;4.55;;
55589;SDS011;41452;42.780;23.116;2023-02-18T01:03:26;9.63;;;4.20;;
55589;SDS011;41452;42.780;23.116;2023-02-18T01:05:52;10.80;;;4.88;;
55589;SDS011;41452;42.780;23.116;2023-02-18T01:08:18;11.73;;;4.60;;
55589;SDS011;41452;42.780;23.116;2023-02-18T01:10:45;15.95;;;5.10;;
55589;SDS011;41452;42.780;23.116;2023-02-18T01:13:12;8.45;;;4.18;;
55589;SDS011;41452;42.780;23.116;2023-02-18T01:15:40;14.13;;;5.00;;
55589;SDS011;41452;42.780;23.116;2023-02-18T01:18:06;11.15;;;4.32;;
55589;SDS011;41452;42.780;23.116;2023-02-18T01:20:33;15.82;;;5.22;;
55589;SDS011;41452;42.780;23.116;2023-02-18T01:23:02;10.68;;;5.15;;
55589;SDS011;41452;42.780;23.116;2023-02-18T01:25:28;17.63;;;5.47;;
55589;SDS011;41452;42.780;23.116;2023-02-18T01:27:54;13.50;;;5.93;;
55589;SDS011;41452;42.780;23.116;2023-02-18T01:30:20;10.65;;;5.65;;
55589;SDS011;41452;42.780;23.116;2023-02-18T01:32:46;15.85;;;5.32;;
55589;SDS011;41452;42.780;23.116;2023-02-18T01:35:16;14.57;;;5.72;;
55589;SDS011;41452;42.780;23.116;2023-02-18T01:37:43;11.10;;;5.00;;
55589;SDS011;41452;42.780;23.116;2023-02-18T01:40:10;12.15;;;5.47;;
55589;SDS011;41452;42.780;23.116;2023-02-18T01:42:38;13.05;;;5.15;;
55589;SDS011;41452;42.780;23.116;2023-02-18T01:48:08;12.52;;;5.43;;
55589;SDS011;41452;42.780;23.116;2023-02-18T01:50:39;13.02;;;6.03;;
55589;SDS011;41452;42.780;23.116;2023-02-18T01:53:07;13.73;;;6.30;;
55589;SDS011;41452;42.780;23.116;2023-02-18T01:55:33;15.68;;;5.70;;
55589;SDS011;41452;42.780;23.116;2023-02-18T01:58:00;11.88;;;5.90;;
55589;SDS011;41452;42.780;23.116;2023-02-18T02:00:26;12.20;;;5.80;;
55589;SDS011;41452;42.780;23.116;2023-02-18T02:02:52;16.55;;;5.85;;
55589;SDS011;41452;42.780;23.116;2023-02-18T02:05:18;16.73;;;5.50;;
55589;SDS011;41452;42.780;23.116;2023-02-18T02:07:46;17.02;;;5.60;;
55589;SDS011;41452;42.780;23.116;2023-02-18T02:10:15;14.82;;;5.88;;
55589;SDS011;41452;42.780;23.116;2023-02-18T02:35:02;12.75;;;4.60;;
55589;SDS011;41452;42.780;23.116;2023-02-18T02:40:16;14.40;;;4.43;;
55589;SDS011;41452;42.780;23.116;2023-02-18T02:43:39;8.90;;;4.18;;
55589;SDS011;41452;42.780;23.116;2023-02-18T02:48:47;11.95;;;5.18;;
55589;SDS011;41452;42.780;23.116;2023-02-18T02:54:22;9.60;;;4.90;;
55589;SDS011;41452;42.780;23.116;2023-02-18T02:56:49;16.60;;;4.63;;
55589;SDS011;41452;42.780;23.116;2023-02-18T02:59:16;9.32;;;4.90;;
55589;SDS011;41452;42.780;23.116;2023-02-18T03:02:32;14.27;;;5.03;;
55589;SDS011;41452;42.780;23.116;2023-02-18T03:17:58;11.93;;;4.53;;
55589;SDS011;41452;42.780;23.116;2023-02-18T03:20:35;12.13;;;5.03;;
55589;SDS011;41452;42.780;23.116;2023-02-18T03:23:10;11.02;;;4.82;;
55589;SDS011;41452;42.780;23.116;2023-02-18T03:25:39;10.15;;;4.13;;
55589;SDS011;41452;42.780;23.116;2023-02-18T03:28:07;8.13;;;4.30;;
55589;SDS011;41452;42.780;23.116;2023-02-18T03:30:59;11.85;;;4.82;;
55589;SDS011;41452;42.780;23.116;2023-02-18T03:33:34;15.10;;;4.20;;
55589;SDS011;41452;42.780;23.116;2023-02-18T03:36:04;12.90;;;4.35;;
55589;SDS011;41452;42.780;23.116;2023-02-18T03:38:53;9.93;;;4.20;;
55589;SDS011;41452;42.780;23.116;2023-02-18T03:41:19;17.52;;;4.25;;
55589;SDS011;41452;42.780;23.116;2023-02-18T03:43:48;9.48;;;3.92;;
55589;SDS011;41452;42.780;23.116;2023-02-18T03:46:15;7.75;;;4.45;;
55589;SDS011;41452;42.780;23.116;2023-02-18T03:48:40;14.77;;;4.63;;
55589;SDS011;41452;42.780;23.116;2023-02-18T03:51:06;11.55;;;4.30;;
55589;SDS011;41452;42.780;23.116;2023-02-18T03:53:31;15.45;;;5.97;;
55589;SDS011;41452;42.780;23.116;2023-02-18T03:55:56;16.33;;;5.20;;
55589;SDS011;41452;42.780;23.116;2023-02-18T03:58:22;18.15;;;4.93;;
55589;SDS011;41452;42.780;23.116;2023-02-18T04:00:47;14.65;;;5.18;;
55589;SDS011;41452;42.780;23.116;2023-02-18T04:03:12;11.73;;;4.72;;
55589;SDS011;41452;42.780;23.116;2023-02-18T04:05:38;13.18;;;5.00;;
55589;SDS011;41452;42.780;23.116;2023-02-18T04:08:03;17.65;;;5.88;;
55589;SDS011;41452;42.780;23.116;2023-02-18T04:10:29;13.57;;;5.68;;
55589;SDS011;41452;42.780;23.116;2023-02-18T04:12:55;21.30;;;5.63;;
55589;SDS011;41452;42.780;23.116;2023-02-18T04:15:20;19.17;;;5.57;;
55589;SDS011;41452;42.780;23.116;2023-02-18T04:17:45;16.77;;;4.95;;
55589;SDS011;41452;42.780;23.116;2023-02-18T04:20:11;11.63;;;4.95;;
55589;SDS011;41452;42.780;23.116;2023-02-18T04:22:37;13.98;;;5.85;;
55589;SDS011;41452;42.780;23.116;2023-02-18T04:25:02;12.50;;;5.47;;
55589;SDS011;41452;42.780;23.116;2023-02-18T04:27:28;17.60;;;5.75;;
55589;SDS011;41452;42.780;23.116;2023-02-18T04:29:53;17.17;;;5.50;;
55589;SDS011;41452;42.780;23.116;2023-02-18T04:32:19;14.38;;;5.13;;
55589;SDS011;41452;42.780;23.116;2023-02-18T04:34:44;11.55;;;5.13;;
55589;SDS011;41452;42.780;23.116;2023-02-18T04:37:09;15.65;;;4.97;;
55589;SDS011;41452;42.780;23.116;2023-02-18T04:39:35;12.00;;;4.72;;
55589;SDS011;41452;42.780;23.116;2023-02-18T04:42:00;8.55;;;4.28;;
55589;SDS011;41452;42.780;23.116;2023-02-18T04:44:26;14.30;;;5.05;;
55589;SDS011;41452;42.780;23.116;2023-02-18T04:46:51;15.52;;;5.07;;
55589;SDS011;41452;42.780;23.116;2023-02-18T04:49:16;11.95;;;5.68;;
55589;SDS011;41452;42.780;23.116;2023-02-18T04:51:42;13.50;;;5.47;;
55589;SDS011;41452;42.780;23.116;2023-02-18T04:54:07;9.95;;;4.65;;
55589;SDS011;41452;42.780;23.116;2023-02-18T04:56:32;14.05;;;5.28;;
55589;SDS011;41452;42.780;23.116;2023-02-18T04:58:58;15.73;;;5.40;;
55589;SDS011;41452;42.780;23.116;2023-02-18T05:01:23;18.98;;;5.65;;
55589;SDS011;41452;42.780;23.116;2023-02-18T05:03:48;14.48;;;5.05;;
55589;SDS011;41452;42.780;23.116;2023-02-18T05:06:14;16.63;;;7.15;;
55589;SDS011;41452;42.780;23.116;2023-02-18T05:08:39;18.33;;;6.60;;
55589;SDS011;41452;42.780;23.116;2023-02-18T05:11:08;14.73;;;7.28;;
55589;SDS011;41452;42.780;23.116;2023-02-18T05:13:33;14.73;;;8.63;;
55589;SDS011;41452;42.780;23.116;2023-02-18T05:15:59;11.70;;;6.57;;
55589;SDS011;41452;42.780;23.116;2023-02-18T05:18:24;11.45;;;5.18;;
55589;SDS011;41452;42.780;23.116;2023-02-18T05:20:50;11.82;;;5.38;;
55589;SDS011;41452;42.780;23.116;2023-02-18T05:23:15;15.50;;;5.15;;
55589;SDS011;41452;42.780;23.116;2023-02-18T05:25:42;13.10;;;4.80;;
55589;SDS011;41452;42.780;23.116;2023-02-18T05:28:07;14.07;;;5.35;;
55589;SDS011;41452;42.780;23.116;2023-02-18T05:30:33;14.55;;;5.63;;
55589;SDS011;41452;42.780;23.116;2023-02-18T05:32:58;13.60;;;5.03;;
55589;SDS011;41452;42.780;23.116;2023-02-18T05:35:24;17.10;;;6.05;;
55589;SDS011;41452;42.780;23.116;2023-02-18T05:37:49;11.02;;;5.28;;
55589;SDS011;41452;42.780;23.116;2023-02-18T05:40:14;14.70;;;5.72;;
55589;SDS011;41452;42.780;23.116;2023-02-18T05:42:41;17.98;;;6.18;;
55589;SDS011;41452;42.780;23.116;2023-02-18T05:45:06;13.10;;;6.07;;
55589;SDS011;41452;42.780;23.116;2023-02-18T05:47:32;12.25;;;5.40;;
55589;SDS011;41452;42.780;23.116;2023-02-18T05:49:57;19.73;;;5.13;;
55589;SDS011;41452;42.780;23.116;2023-02-18T05:52:23;15.80;;;6.63;;
55589;SDS011;41452;42.780;23.116;2023-02-18T05:54:48;14.88;;;7.25;;
55589;SDS011;41452;42.780;23.116;2023-02-18T05:57:13;15.80;;;6.60;;
55589;SDS011;41452;42.780;23.116;2023-02-18T05:59:40;16.83;;;6.53;;
55589;SDS011;41452;42.780;23.116;2023-02-18T06:02:05;13.25;;;6.60;;
55589;SDS011;41452;42.780;23.116;2023-02-18T06:04:31;11.63;;;4.85;;
55589;SDS011;41452;42.780;23.116;2023-02-18T06:06:56;12.82;;;5.15;;
55589;SDS011;41452;42.780;23.116;2023-02-18T06:09:22;15.02;;;5.40;;
55589;SDS011;41452;42.780;23.116;2023-02-18T06:11:47;13.65;;;4.95;;
55589;SDS011;41452;42.780;23.116;2023-02-18T06:14:12;14.98;;;5.32;;
55589;SDS011;41452;42.780;23.116;2023-02-18T06:16:38;9.23;;;4.32;;
55589;SDS011;41452;42.780;23.116;2023-02-18T06:19:03;14.60;;;5.32;;
55589;SDS011;41452;42.780;23.116;2023-02-18T06:21:29;14.95;;;4.88;;
55589;SDS011;41452;42.780;23.116;2023-02-18T06:23:54;9.20;;;4.68;;
55589;SDS011;41452;42.780;23.116;2023-02-18T06:26:20;8.15;;;4.65;;
55589;SDS011;41452;42.780;23.116;2023-02-18T06:28:45;10.75;;;4.88;;
55589;SDS011;41452;42.780;23.116;2023-02-18T06:31:11;12.50;;;5.30;;
55589;SDS011;41452;42.780;23.116;2023-02-18T06:33:36;18.60;;;5.07;;
55589;SDS011;41452;42.780;23.116;2023-02-18T06:36:03;16.92;;;6.65;;
55589;SDS011;41452;42.780;23.116;2023-02-18T06:38:35;18.63;;;6.85;;
55589;SDS011;41452;42.780;23.116;2023-02-18T06:41:01;23.38;;;5.80;;
55589;SDS011;41452;42.780;23.116;2023-02-18T06:43:27;14.02;;;6.35;;
55589;SDS011;41452;42.780;23.116;2023-02-18T06:45:52;15.13;;;5.85;;
55589;SDS011;41452;42.780;23.116;2023-02-18T06:48:18;19.73;;;5.65;;
55589;SDS011;41452;42.780;23.116;2023-02-18T06:50:43;15.73;;;6.85;;
55589;SDS011;41452;42.780;23.116;2023-02-18T06:53:08;14.60;;;5.93;;
55589;SDS011;41452;42.780;23.116;2023-02-18T06:55:34;11.02;;;5.53;;
55589;SDS011;41452;42.780;23.116;2023-02-18T06:58:00;15.63;;;5.88;;
55589;SDS011;41452;42.780;23.116;2023-02-18T07:00:25;12.48;;;6.00;;
55589;SDS011;41452;42.780;23.116;2023-02-18T07:02:51;10.95;;;5.13;;
55589;SDS011;41452;42.780;23.116;2023-02-18T07:05:16;18.33;;;5.63;;
55589;SDS011;41452;42.780;23.116;2023-02-18T07:07:41;11.77;;;4.90;;
55589;SDS011;41452;42.780;23.116;2023-02-18T07:10:08;9.38;;;4.53;;
55589;SDS011;41452;42.780;23.116;2023-02-18T07:12:34;15.43;;;5.60;;
55589;SDS011;41452;42.780;23.116;2023-02-18T07:14:59;15.80;;;5.50;;
55589;SDS011;41452;42.780;23.116;2023-02-18T07:17:25;12.73;;;4.82;;
55589;SDS011;41452;42.780;23.116;2023-02-18T07:19:50;11.45;;;4.53;;
55589;SDS011;41452;42.780;23.116;2023-02-18T07:22:16;12.13;;;4.68;;
55589;SDS011;41452;42.780;23.116;2023-02-18T07:24:41;13.18;;;4.68;;
55589;SDS011;41452;42.780;23.116;2023-02-18T07:27:07;16.17;;;4.22;;
55589;SDS011;41452;42.780;23.116;2023-02-18T07:29:32;13.90;;;5.90;;
55589;SDS011;41452;42.780;23.116;2023-02-18T07:31:58;11.88;;;5.03;;
55589;SDS011;41452;42.780;23.116;2023-02-18T07:34:23;14.98;;;5.22;;
55589;SDS011;41452;42.780;23.116;2023-02-18T07:36:49;10.88;;;4.88;;
55589;SDS011;41452;42.780;23.116;2023-02-18T07:39:14;10.65;;;4.85;;
55589;SDS011;41452;42.780;23.116;2023-02-18T07:41:42;19.17;;;6.03;;
55589;SDS011;41452;42.780;23.116;2023-02-18T07:44:07;10.50;;;5.20;;
55589;SDS011;41452;42.780;23.116;2023-02-18T07:46:32;9.95;;;4.80;;
55589;SDS011;41452;42.780;23.116;2023-02-18T07:48:58;8.55;;;4.85;;
55589;SDS011;41452;42.780;23.116;2023-02-18T07:51:23;16.48;;;5.68;;
55589;SDS011;41452;42.780;23.116;2023-02-18T07:53:49;8.48;;;3.88;;
55589;SDS011;41452;42.780;23.116;2023-02-18T07:56:14;10.82;;;5.22;;
55589;SDS011;41452;42.780;23.116;2023-02-18T07:58:39;10.25;;;4.50;;
55589;SDS011;41452;42.780;23.116;2023-02-18T08:01:05;8.82;;;4.88;;
55589;SDS011;41452;42.780;23.116;2023-02-18T08:03:33;13.85;;;5.07;;
55589;SDS011;41452;42.780;23.116;2023-02-18T08:05:59;11.50;;;4.43;;
55589;SDS011;41452;42.780;23.116;2023-02-18T08:08:26;13.57;;;4.45;;
55589;SDS011;41452;42.780;23.116;2023-02-18T08:10:54;13.10;;;4.47;;
55589;SDS011;41452;42.780;23.116;2023-02-18T08:13:21;13.02;;;5.00;;
55589;SDS011;41452;42.780;23.116;2023-02-18T08:15:46;11.40;;;5.05;;
55589;SDS011;41452;42.780;23.116;2023-02-18T08:18:18;20.45;;;6.05;;
55589;SDS011;41452;42.780;23.116;2023-02-18T08:20:46;12.43;;;5.10;;
55589;SDS011;41452;42.780;23.116;2023-02-18T08:23:13;9.85;;;5.30;;
55589;SDS011;41452;42.780;23.116;2023-02-18T08:25:39;14.45;;;5.10;;
55589;SDS011;41452;42.780;23.116;2023-02-18T08:28:04;11.73;;;5.30;;
55589;SDS011;41452;42.780;23.116;2023-02-18T08:30:30;18.48;;;5.55;;
55589;SDS011;41452;42.780;23.116;2023-02-18T08:32:55;10.95;;;4.95;;
55589;SDS011;41452;42.780;23.116;2023-02-18T08:35:21;14.85;;;5.47;;
55589;SDS011;41452;42.780;23.116;2023-02-18T08:37:47;22.10;;;5.53;;
55589;SDS011;41452;42.780;23.116;2023-02-18T08:40:12;13.35;;;5.47;;
55589;SDS011;41452;42.780;23.116;2023-02-18T08:42:38;10.35;;;5.72;;
55589;SDS011;41452;42.780;23.116;2023-02-18T08:45:04;11.60;;;5.40;;
55589;SDS011;41452;42.780;23.116;2023-02-18T08:47:30;18.20;;;5.97;;
55589;SDS011;41452;42.780;23.116;2023-02-18T08:49:56;12.43;;;5.65;;
55589;SDS011;41452;42.780;23.116;2023-02-18T08:52:21;11.60;;;4.88;;
55589;SDS011;41452;42.780;23.116;2023-02-18T08:54:47;12.38;;;4.97;;
55589;SDS011;41452;42.780;23.116;2023-02-18T08:57:13;19.27;;;5.63;;
55589;SDS011;41452;42.780;23.116;2023-02-18T08:59:38;9.93;;;5.00;;
55589;SDS011;41452;42.780;23.116;2023-02-18T09:02:04;12.63;;;5.50;;
55589;SDS011;41452;42.780;23.116;2023-02-18T09:04:29;9.75;;;4.65;;
55589;SDS011;41452;42.780;23.116;2023-02-18T09:06:55;12.48;;;4.57;;
55589;SDS011;41452;42.780;23.116;2023-02-18T09:09:21;14.18;;;4.95;;
55589;SDS011;41452;42.780;23.116;2023-02-18T09:11:46;9.73;;;3.70;;
55589;SDS011;41452;42.780;23.116;2023-02-18T09:14:12;11.32;;;4.88;;
55589;SDS011;41452;42.780;23.116;2023-02-18T09:16:39;10.27;;;5.40;;
55589;SDS011;41452;42.780;23.116;2023-02-18T09:19:05;14.05;;;5.72;;
55589;SDS011;41452;42.780;23.116;2023-02-18T09:21:31;13.23;;;5.05;;
55589;SDS011;41452;42.780;23.116;2023-02-18T09:23:57;11.27;;;4.95;;
55589;SDS011;41452;42.780;23.116;2023-02-18T09:26:22;10.10;;;5.28;;
55589;SDS011;41452;42.780;23.116;2023-02-18T09:28:50;18.70;;;5.55;;
55589;SDS011;41452;42.780;23.116;2023-02-18T09:31:17;12.70;;;4.90;;
55589;SDS011;41452;42.780;23.116;2023-02-18T09:33:55;15.02;;;5.20;;
55589;SDS011;41452;42.780;23.116;2023-02-18T09:36:22;12.57;;;4.70;;
55589;SDS011;41452;42.780;23.116;2023-02-18T09:38:48;8.80;;;4.10;;
55589;SDS011;41452;42.780;23.116;2023-02-18T09:46:45;10.05;;;3.97;;
55589;SDS011;41452;42.780;23.116;2023-02-18T09:49:22;14.10;;;4.63;;
55589;SDS011;41452;42.780;23.116;2023-02-18T09:51:50;11.80;;;5.18;;
55589;SDS011;41452;42.780;23.116;2023-02-18T09:54:17;11.13;;;4.32;;
55589;SDS011;41452;42.780;23.116;2023-02-18T09:56:44;13.27;;;4.43;;
55589;SDS011;41452;42.780;23.116;2023-02-18T09:59:19;9.23;;;3.78;;
55589;SDS011;41452;42.780;23.116;2023-02-18T10:01:47;6.85;;;3.63;;
55589;SDS011;41452;42.780;23.116;2023-02-18T10:04:24;14.13;;;4.68;;
55589;SDS011;41452;42.780;23.116;2023-02-18T10:06:54;4.65;;;2.63;;
55589;SDS011;41452;42.780;23.116;2023-02-18T10:09:24;9.85;;;4.10;;
55589;SDS011;41452;42.780;23.116;2023-02-18T10:11:55;8.48;;;3.35;;
55589;SDS011;41452;42.780;23.116;2023-02-18T10:14:48;7.82;;;4.57;;
55589;SDS011;41452;42.780;23.116;2023-02-18T10:17:25;10.07;;;3.15;;
55589;SDS011;41452;42.780;23.116;2023-02-18T10:19:54;11.95;;;3.22;;
55589;SDS011;41452;42.780;23.116;2023-02-18T10:22:21;9.98;;;3.38;;
55589;SDS011;41452;42.780;23.116;2023-02-18T10:24:50;6.78;;;3.72;;
55589;SDS011;41452;42.780;23.116;2023-02-18T10:27:20;6.53;;;3.25;;
55589;SDS011;41452;42.780;23.116;2023-02-18T10:30:09;7.35;;;3.90;;
55589;SDS011;41452;42.780;23.116;2023-02-18T10:33:21;8.98;;;3.35;;
55589;SDS011;41452;42.780;23.116;2023-02-18T10:35:57;6.28;;;3.25;;
55589;SDS011;41452;42.780;23.116;2023-02-18T10:41:10;6.10;;;3.08;;
55589;SDS011;41452;42.780;23.116;2023-02-18T10:49:40;8.10;;;3.17;;
55589;SDS011;41452;42.780;23.116;2023-02-18T10:57:25;8.18;;;3.72;;
55589;SDS011;41452;42.780;23.116;2023-02-18T11:00:01;10.88;;;4.53;;
55589;SDS011;41452;42.780;23.116;2023-02-18T11:02:34;10.65;;;5.68;;
55589;SDS011;41452;42.780;23.116;2023-02-18T11:05:04;7.82;;;4.10;;
55589;SDS011;41452;42.780;23.116;2023-02-18T11:07:52;8.07;;;4.57;;
55589;SDS011;41452;42.780;23.116;2023-02-18T11:10:39;8.40;;;3.67;;
55589;SDS011;41452;42.780;23.116;2023-02-18T11:13:08;10.00;;;3.83;;
55589;SDS011;41452;42.780;23.116;2023-02-18T11:15:37;6.93;;;3.45;;
55589;SDS011;41452;42.780;23.116;2023-02-18T11:20:54;6.82;;;3.30;;
55589;SDS011;41452;42.780;23.116;2023-02-18T11:23:21;6.45;;;3.20;;
55589;SDS011;41452;42.780;23.116;2023-02-18T11:26:06;6.88;;;3.97;;
55589;SDS011;41452;42.780;23.116;2023-02-18T11:31:07;9.13;;;3.80;;
55589;SDS011;41452;42.780;23.116;2023-02-18T11:33:42;5.47;;;3.45;;
55589;SDS011;41452;42.780;23.116;2023-02-18T11:36:22;7.72;;;3.33;;
55589;SDS011;41452;42.780;23.116;2023-02-18T11:39:25;5.68;;;3.00;;
55589;SDS011;41452;42.780;23.116;2023-02-18T11:41:53;5.40;;;3.22;;
55589;SDS011;41452;42.780;23.116;2023-02-18T11:44:29;6.63;;;3.50;;
55589;SDS011;41452;42.780;23.116;2023-02-18T11:49:37;6.32;;;3.60;;
55589;SDS011;41452;42.780;23.116;2023-02-18T11:54:29;14.30;;;4.35;;
55589;SDS011;41452;42.780;23.116;2023-02-18T11:57:05;7.05;;;3.63;;
55589;SDS011;41452;42.780;23.116;2023-02-18T11:59:36;11.35;;;4.55;;
55589;SDS011;41452;42.780;23.116;2023-02-18T12:04:51;7.65;;;3.38;;
55589;SDS011;41452;42.780;23.116;2023-02-18T12:07:30;7.07;;;3.40;;
55589;SDS011;41452;42.780;23.116;2023-02-18T12:10:27;7.47;;;3.10;;
55589;SDS011;41452;42.780;23.116;2023-02-18T12:15:48;5.97;;;2.88;;
55589;SDS011;41452;42.780;23.116;2023-02-18T12:18:36;10.32;;;3.58;;
55589;SDS011;41452;42.780;23.116;2023-02-18T12:29:30;8.45;;;3.35;;
55589;SDS011;41452;42.780;23.116;2023-02-18T12:40:20;8.98;;;3.20;;
55589;SDS011;41452;42.780;23.116;2023-02-18T12:42:53;7.10;;;3.47;;
55589;SDS011;41452;42.780;23.116;2023-02-18T12:53:38;7.03;;;3.33;;
55589;SDS011;41452;42.780;23.116;2023-02-18T12:58:56;13.32;;;3.40;;
55589;SDS011;41452;42.780;23.116;2023-02-18T13:01:33;6.90;;;3.20;;
55589;SDS011;41452;42.780;23.116;2023-02-18T13:15:43;5.78;;;3.03;;
55589;SDS011;41452;42.780;23.116;2023-02-18T13:18:17;5.00;;;2.75;;
55589;SDS011;41452;42.780;23.116;2023-02-18T13:20:50;7.35;;;3.50;;
55589;SDS011;41452;42.780;23.116;2023-02-18T13:23:23;7.90;;;3.33;;
55589;SDS011;41452;42.780;23.116;2023-02-18T13:26:04;5.65;;;2.95;;
55589;SDS011;41452;42.780;23.116;2023-02-18T13:28:42;7.82;;;3.28;;
55589;SDS011;41452;42.780;23.116;2023-02-18T13:34:04;9.77;;;3.92;;
55589;SDS011;41452;42.780;23.116;2023-02-18T13:39:54;7.85;;;3.88;;
55589;SDS011;41452;42.780;23.116;2023-02-18T13:52:46;8.48;;;3.67;;
55589;SDS011;41452;42.780;23.116;2023-02-18T13:58:18;39.97;;;17.27;;
55589;SDS011;41452;42.780;23.116;2023-02-18T14:00:54;8.40;;;4.32;;
55589;SDS011;41452;42.780;23.116;2023-02-18T14:03:33;15.02;;;4.22;;
55589;SDS011;41452;42.780;23.116;2023-02-18T14:06:11;13.25;;;3.80;;
55589;SDS011;41452;42.780;23.116;2023-02-18T14:08:40;9.73;;;5.28;;
55589;SDS011;41452;42.780;23.116;2023-02-18T14:13:41;12.27;;;5.85;;
55589;SDS011;41452;42.780;23.116;2023-02-18T14:16:17;10.93;;;5.85;;
55589;SDS011;41452;42.780;23.116;2023-02-18T14:28:41;29.33;;;13.02;;
55589;SDS011;41452;42.780;23.116;2023-02-18T14:31:29;23.63;;;7.32;;
55589;SDS011;41452;42.780;23.116;2023-02-18T14:37:03;12.45;;;5.18;;
55589;SDS011;41452;42.780;23.116;2023-02-18T14:51:02;10.13;;;5.20;;
55589;SDS011;41452;42.780;23.116;2023-02-18T14:53:29;12.40;;;4.65;;
55589;SDS011;41452;42.780;23.116;2023-02-18T14:55:58;9.05;;;4.18;;
55589;SDS011;41452;42.780;23.116;2023-02-18T14:58:29;10.50;;;4.80;;
55589;SDS011;41452;42.780;23.116;2023-02-18T15:01:06;10.25;;;3.80;;
55589;SDS011;41452;42.780;23.116;2023-02-18T15:03:52;13.55;;;4.68;;
55589;SDS011;41452;42.780;23.116;2023-02-18T15:06:23;9.35;;;3.67;;
55589;SDS011;41452;42.780;23.116;2023-02-18T15:08:57;8.68;;;3.92;;
55589;SDS011;41452;42.780;23.116;2023-02-18T15:11:30;12.82;;;4.68;;
55589;SDS011;41452;42.780;23.116;2023-02-18T15:14:07;11.55;;;4.47;;
55589;SDS011;41452;42.780;23.116;2023-02-18T15:19:05;9.52;;;4.65;;
55589;SDS011;41452;42.780;23.116;2023-02-18T15:21:38;16.40;;;6.35;;
55589;SDS011;41452;42.780;23.116;2023-02-18T15:24:20;15.05;;;6.18;;
55589;SDS011;41452;42.780;23.116;2023-02-18T15:26:50;16.48;;;7.72;;
55589;SDS011;41452;42.780;23.116;2023-02-18T15:29:20;15.60;;;7.85;;
55589;SDS011;41452;42.780;23.116;2023-02-18T15:31:47;20.35;;;9.80;;
55589;SDS011;41452;42.780;23.116;2023-02-18T15:36:51;16.42;;;8.25;;
55589;SDS011;41452;42.780;23.116;2023-02-18T15:39:17;17.63;;;8.98;;
55589;SDS011;41452;42.780;23.116;2023-02-18T15:41:42;17.35;;;9.02;;
55589;SDS011;41452;42.780;23.116;2023-02-18T15:44:08;18.50;;;8.30;;
55589;SDS011;41452;42.780;23.116;2023-02-18T15:46:42;13.00;;;7.18;;
55589;SDS011;41452;42.780;23.116;2023-02-18T15:49:08;13.48;;;6.53;;
55589;SDS011;41452;42.780;23.116;2023-02-18T15:51:33;9.93;;;5.40;;
55589;SDS011;41452;42.780;23.116;2023-02-18T15:53:59;11.27;;;5.10;;
55589;SDS011;41452;42.780;23.116;2023-02-18T15:59:09;8.35;;;4.18;;
55589;SDS011;41452;42.780;23.116;2023-02-18T16:01:51;8.98;;;4.93;;
55589;SDS011;41452;42.780;23.116;2023-02-18T16:04:22;9.45;;;4.68;;
55589;SDS011;41452;42.780;23.116;2023-02-18T16:06:53;9.82;;;4.75;;
55589;SDS011;41452;42.780;23.116;2023-02-18T16:11:56;10.98;;;3.78;;
55589;SDS011;41452;42.780;23.116;2023-02-18T16:19:40;8.98;;;3.67;;
55589;SDS011;41452;42.780;23.116;2023-02-18T16:22:22;9.55;;;4.13;;
55589;SDS011;41452;42.780;23.116;2023-02-18T16:24:55;8.45;;;3.78;;
55589;SDS011;41452;42.780;23.116;2023-02-18T16:30:14;6.07;;;3.08;;
55589;SDS011;41452;42.780;23.116;2023-02-18T16:32:41;9.55;;;3.80;;
55589;SDS011;41452;42.780;23.116;2023-02-18T16:35:07;8.85;;;3.63;;
55589;SDS011;41452;42.780;23.116;2023-02-18T16:37:33;8.40;;;4.35;;
55589;SDS011;41452;42.780;23.116;2023-02-18T16:42:51;11.25;;;4.35;;
55589;SDS011;41452;42.780;23.116;2023-02-18T16:45:19;7.32;;;3.90;;
55589;SDS011;41452;42.780;23.116;2023-02-18T16:47:46;11.27;;;5.63;;
55589;SDS011;41452;42.780;23.116;2023-02-18T16:50:14;8.60;;;4.72;;
55589;SDS011;41452;42.780;23.116;2023-02-18T16:52:43;11.95;;;7.38;;
55589;SDS011;41452;42.780;23.116;2023-02-18T16:55:15;8.00;;;4.43;;
55589;SDS011;41452;42.780;23.116;2023-02-18T16:57:42;8.50;;;3.22;;
55589;SDS011;41452;42.780;23.116;2023-02-18T17:00:08;7.65;;;4.00;;
55589;SDS011;41452;42.780;23.116;2023-02-18T17:02:34;8.35;;;3.55;;
55589;SDS011;41452;42.780;23.116;2023-02-18T17:05:00;36.08;;;11.90;;
55589;SDS011;41452;42.780;23.116;2023-02-18T17:07:25;58.35;;;22.80;;
55589;SDS011;41452;42.780;23.116;2023-02-18T17:09:50;59.55;;;23.42;;
55589;SDS011;41452;42.780;23.116;2023-02-18T17:12:16;37.85;;;13.23;;
55589;SDS011;41452;42.780;23.116;2023-02-18T17:14:41;15.70;;;7.47;;
55589;SDS011;41452;42.780;23.116;2023-02-18T17:17:10;13.40;;;6.03;;
55589;SDS011;41452;42.780;23.116;2023-02-18T17:19:37;13.90;;;6.30;;
55589;SDS011;41452;42.780;23.116;2023-02-18T17:22:03;17.38;;;7.55;;
55589;SDS011;41452;42.780;23.116;2023-02-18T17:24:28;16.98;;;6.93;;
55589;SDS011;41452;42.780;23.116;2023-02-18T17:26:54;18.02;;;6.53;;
55589;SDS011;41452;42.780;23.116;2023-02-18T17:29:19;10.77;;;4.82;;
55589;SDS011;41452;42.780;23.116;2023-02-18T17:31:45;10.50;;;4.78;;
55589;SDS011;41452;42.780;23.116;2023-02-18T17:34:13;11.85;;;4.47;;
55589;SDS011;41452;42.780;23.116;2023-02-18T17:36:46;11.23;;;4.35;;
55589;SDS011;41452;42.780;23.116;2023-02-18T17:39:12;12.05;;;3.92;;
55589;SDS011;41452;42.780;23.116;2023-02-18T17:41:39;11.60;;;4.80;;
55589;SDS011;41452;42.780;23.116;2023-02-18T17:44:13;11.30;;;5.53;;